Time;durP1;ratioP1;P1;durP2;ratioP2;P2;SDS_P1;SDS_P2;PMS_P1;PMS_P2;Temp;Humidity;BMP_temperature;BMP_pressure;BME280_temperature;BME280_humidity;BME280_pressure;Samples;Min_cycle;Max_cycle;Signal;HPM_P1;HPM_P2
2022/12/18 00:01:42;;;;;;;45.85;18.90;;;;;;;-5.19;77.84;102760.75;5076596;28;20506;-91
2022/12/18 00:04:19;;;;;;;46.50;18.98;;;;;;;-5.02;78.38;102769.44;5072187;28;20035;-90
2022/12/18 00:06:44;;;;;;;50.75;19.58;;;;;;;-5.17;78.59;102747.16;5076119;28;20028;-90
2022/12/18 00:09:10;;;;;;;46.60;18.10;;;;;;;-5.06;78.61;102754.59;5080138;28;20110;-90
2022/12/18 00:11:35;;;;;;;57.40;22.70;;;;;;;-5.15;78.91;102742.06;5078178;28;20031;-90
2022/12/18 00:14:00;;;;;;;54.97;20.63;;;;;;;-5.11;78.39;102761.19;5098552;28;20032;-91
2022/12/18 00:16:27;;;;;;;47.08;18.70;;;;;;;-5.34;77.70;102747.91;5084164;28;20019;-90
2022/12/18 00:18:55;;;;;;;49.22;19.15;;;;;;;-5.37;78.79;102740.00;5099507;28;20107;-91
2022/12/18 00:21:21;;;;;;;58.60;23.38;;;;;;;-5.33;79.21;102736.78;5098336;28;20034;-91
2022/12/18 00:23:47;;;;;;;48.75;19.10;;;;;;;-5.39;78.88;102726.16;5076947;28;20123;-91
2022/12/18 00:26:22;;;;;;;47.72;18.23;;;;;;;-5.41;78.79;102726.09;5077020;28;20024;-90
2022/12/18 00:28:48;;;;;;;48.33;18.42;;;;;;;-5.30;78.59;102736.09;5089908;28;20036;-90
2022/12/18 00:31:18;;;;;;;54.58;19.77;;;;;;;-5.29;77.55;102735.28;5079484;28;20382;-91
2022/12/18 00:33:44;;;;;;;52.83;19.17;;;;;;;-5.39;77.54;102726.16;5080949;28;20028;-91
2022/12/18 00:36:17;;;;;;;50.97;20.15;;;;;;;-5.36;78.43;102722.84;5083734;28;20024;-91
2022/12/18 00:38:42;;;;;;;40.83;17.02;;;;;;;-5.35;77.41;102725.53;5074766;28;20134;-90
2022/12/18 00:41:09;;;;;;;46.42;17.75;;;;;;;-5.48;76.72;102717.91;5082739;28;20115;-90
2022/12/18 00:43:35;;;;;;;45.47;19.00;;;;;;;-5.52;77.58;102713.41;5070977;28;20024;-90
2022/12/18 00:46:04;;;;;;;49.35;18.67;;;;;;;-5.48;77.07;102712.75;5095992;28;20122;-91
2022/12/18 00:48:29;;;;;;;41.47;17.15;;;;;;;-5.60;78.14;102694.91;5074975;28;20034;-90
2022/12/18 00:50:54;;;;;;;47.72;18.30;;;;;;;-5.41;78.29;102725.16;5096421;28;20044;-91
2022/12/18 00:53:20;;;;;;;40.97;17.10;;;;;;;-5.54;78.54;102705.59;5078665;28;20028;-91
2022/12/18 00:55:46;;;;;;;50.70;18.98;;;;;;;-5.54;78.32;102710.75;5088081;28;20055;-90
2022/12/18 00:58:13;;;;;;;49.53;17.42;;;;;;;-5.61;78.60;102694.84;5085933;28;20073;-90
2022/12/18 01:00:38;;;;;;;49.20;20.42;;;;;;;-5.54;78.89;102707.28;5082857;28;20020;-90
2022/12/18 01:03:05;;;;;;;48.00;19.17;;;;;;;-5.45;79.02;102728.41;5082486;28;20028;-90
2022/12/18 01:05:30;;;;;;;48.80;18.83;;;;;;;-5.47;78.66;102745.47;5086802;28;20020;-91
2022/12/18 01:07:56;;;;;;;50.70;18.95;;;;;;;-5.53;78.08;102750.28;5108077;28;20380;-91
2022/12/18 01:10:22;;;;;;;49.50;17.88;;;;;;;-5.58;78.43;102738.81;5089117;28;20379;-91
2022/12/18 01:12:48;;;;;;;51.83;20.98;;;;;;;-5.67;78.84;102749.50;5102534;28;20035;-90
2022/12/18 01:15:14;;;;;;;53.85;18.75;;;;;;;-5.74;79.00;102734.47;5087897;28;20024;-91
2022/12/18 01:17:39;;;;;;;49.72;19.35;;;;;;;-5.70;78.85;102734.75;5094390;28;20043;-91
2022/12/18 01:20:05;;;;;;;52.70;20.13;;;;;;;-5.72;78.43;102744.09;5094923;28;20054;-90
2022/12/18 01:22:31;;;;;;;45.38;19.30;;;;;;;-5.72;78.91;102745.78;5105446;28;20169;-91
2022/12/18 01:24:56;;;;;;;48.55;20.00;;;;;;;-5.75;79.13;102741.31;5087049;28;20530;-90
2022/12/18 01:27:21;;;;;;;39.42;16.98;;;;;;;-5.75;78.47;102741.31;5090120;28;20081;-90
2022/12/18 01:29:46;;;;;;;37.63;16.92;;;;;;;-5.86;78.04;102721.81;5086230;28;20020;-91
2022/12/18 01:32:12;;;;;;;47.85;18.20;;;;;;;-5.88;77.16;102743.13;5085503;28;20039;-91
2022/12/18 01:34:38;;;;;;;40.95;16.58;;;;;;;-5.88;78.15;102759.44;5090119;28;20054;-90
2022/12/18 01:37:04;;;;;;;47.47;19.65;;;;;;;-5.90;76.95;102748.19;5103088;28;20034;-91
2022/12/18 01:39:31;;;;;;;43.35;18.25;;;;;;;-5.93;77.73;102740.31;5109376;28;20023;-90
2022/12/18 01:42:03;;;;;;;45.33;18.25;;;;;;;-6.00;77.89;102727.91;5115696;28;20024;-90
2022/12/18 01:44:47;;;;;;;;;;;;;;;-5.84;78.05;102735.66;5087498;28;20030;-90
2022/12/18 01:47:34;;;;;;;42.67;15.88;;;;;;;-5.85;78.65;102739.03;5105746;28;20311;-90
2022/12/18 01:50:05;;;;;;;42.95;16.77;;;;;;;-5.86;78.45;102726.97;5090633;28;20058;-91
2022/12/18 01:52:32;;;;;;;43.53;16.77;;;;;;;-5.95;77.86;102723.91;5106893;28;20028;-90
2022/12/18 01:55:00;;;;;;;40.80;16.65;;;;;;;-5.98;78.83;102734.00;5111940;28;20020;-91
2022/12/18 01:57:26;;;;;;;42.47;16.70;;;;;;;-5.91;79.09;102730.97;5081673;28;20501;-91
2022/12/18 01:59:56;;;;;;;46.22;18.15;;;;;;;-5.92;79.69;102736.97;5103368;28;20089;-90
2022/12/18 02:02:22;;;;;;;44.35;18.30;;;;;;;-5.87;79.03;102727.78;5106327;28;20031;-90
2022/12/18 02:04:47;;;;;;;41.53;17.27;;;;;;;-5.91;78.52;102715.53;5092670;28;20085;-90
2022/12/18 02:07:38;;;;;;;44.30;17.85;;;;;;;-5.93;79.18;102714.56;5082810;28;20089;-90
2022/12/18 02:10:03;;;;;;;38.72;17.48;;;;;;;-5.88;78.19;102725.97;5089178;28;20051;-90
2022/12/18 02:12:46;;;;;;;46.20;17.52;;;;;;;-6.01;78.32;102708.09;5080423;28;20107;-90
2022/12/18 02:15:24;;;;;;;38.38;16.42;;;;;;;-5.94;78.09;102720.50;5093065;28;20043;-91
2022/12/18 02:18:07;;;;;;;36.03;16.52;;;;;;;-6.09;77.96;102712.81;5083250;28;20036;-91
2022/12/18 02:20:45;;;;;;;45.55;17.15;;;;;;;-6.15;77.95;102715.03;5108286;28;20032;-90
2022/12/18 02:23:20;;;;;;;47.35;17.73;;;;;;;-6.09;77.55;102725.69;5083884;28;20106;-90
2022/12/18 02:26:06;;;;;;;41.13;18.10;;;;;;;-6.14;77.21;102721.94;5098032;28;20060;-91
2022/12/18 02:28:37;;;;;;;40.05;17.10;;;;;;;-6.15;77.51;102733.06;5077718;28;20020;-90
2022/12/18 02:31:08;;;;;;;40.20;16.50;;;;;;;-6.22;77.56;102720.63;5072850;28;20123;-90
2022/12/18 02:33:36;;;;;;;42.88;18.35;;;;;;;-6.34;77.75;102705.34;5073542;28;20024;-90
2022/12/18 02:36:02;;;;;;;43.38;18.02;;;;;;;-6.19;78.01;102716.53;5082335;28;20023;-90
2022/12/18 02:38:29;;;;;;;52.60;19.08;;;;;;;-6.19;78.43;102716.53;5081243;28;20403;-90
2022/12/18 02:40:56;;;;;;;40.33;17.70;;;;;;;-6.18;78.35;102722.56;5093507;28;20039;-90
2022/12/18 02:43:21;;;;;;;46.25;17.17;;;;;;;-6.20;78.35;102714.78;5076021;28;20475;-91
2022/12/18 02:45:52;;;;;;;44.20;17.48;;;;;;;-6.12;77.98;102722.03;5098510;28;20054;-91
2022/12/18 02:48:22;;;;;;;40.63;15.50;;;;;;;-6.23;78.48;102698.25;5081485;28;20522;-90
2022/12/18 02:51:08;;;;;;;32.83;16.00;;;;;;;-6.19;77.81;102697.63;5090672;28;20040;-91
2022/12/18 02:53:44;;;;;;;37.85;16.63;;;;;;;-6.20;78.55;102699.31;5083004;28;20031;-90
2022/12/18 02:56:26;;;;;;;41.30;15.88;;;;;;;-6.30;77.40;102691.84;5096885;28;20015;-91
2022/12/18 02:59:04;;;;;;;35.05;14.45;;;;;;;-6.19;77.67;102703.66;5074340;28;20020;-90
2022/12/18 03:01:43;;;;;;;43.00;17.42;;;;;;;-6.21;77.54;102700.09;5078073;28;20023;-91
2022/12/18 03:04:15;;;;;;;41.65;16.38;;;;;;;-6.29;77.04;102697.91;5092713;28;20064;-91
2022/12/18 03:06:46;;;;;;;37.72;15.57;;;;;;;-6.40;77.23;102694.69;5100368;28;20111;-91
2022/12/18 03:09:18;;;;;;;40.92;17.10;;;;;;;-6.41;76.65;102700.63;5075103;28;20379;-91
2022/12/18 03:14:36;;;;;;;33.17;14.68;;;;;;;-6.65;77.77;102673.47;5095260;28;20042;-92
2022/12/18 03:17:05;;;;;;;34.53;16.08;;;;;;;-6.50;78.17;102680.41;5076105;28;20032;-91
2022/12/18 03:19:32;;;;;;;34.55;14.38;;;;;;;-6.51;77.47;102665.75;5073319;28;20032;-91
2022/12/18 03:22:01;;;;;;;32.72;14.32;;;;;;;-6.52;76.44;102670.84;5091580;28;20035;-91
2022/12/18 03:24:30;;;;;;;34.33;14.93;;;;;;;-6.57;77.68;102670.56;5081472;28;20467;-91
2022/12/18 03:27:02;;;;;;;32.80;14.68;;;;;;;-6.51;77.88;102680.31;5074795;28;20019;-91
2022/12/18 03:29:33;;;;;;;31.17;13.77;;;;;;;-6.60;76.34;102672.06;5087721;28;20023;-91
2022/12/18 03:32:07;;;;;;;28.27;13.43;;;;;;;-6.61;77.47;102678.00;5074121;28;20111;-91
2022/12/18 03:34:35;;;;;;;31.42;14.02;;;;;;;-6.64;76.89;102682.97;5079609;28;20493;-91
2022/12/18 03:37:01;;;;;;;35.00;13.43;;;;;;;-6.58;76.69;102693.59;5079764;28;20037;-91
2022/12/18 03:39:26;;;;;;;31.95;14.02;;;;;;;-6.63;76.09;102682.16;5079148;28;20039;-91
2022/12/18 03:42:10;;;;;;;33.92;14.60;;;;;;;-6.68;76.24;102682.78;5082311;28;20043;-91
2022/12/18 03:44:56;;;;;;;30.95;13.25;;;;;;;-6.84;76.12;102682.66;5076944;28;20020;-91
2022/12/18 03:47:37;;;;;;;31.05;13.25;;;;;;;-6.91;76.86;102677.94;5085168;28;20578;-92
2022/12/18 03:50:29;;;;;;;27.67;12.23;;;;;;;-6.95;76.81;102665.69;5082078;28;20047;-91
2022/12/18 03:53:05;;;;;;;28.33;13.00;;;;;;;-6.89;77.34;102660.06;5077952;28;20102;-91
2022/12/18 03:55:34;;;;;;;31.55;13.27;;;;;;;-6.84;77.65;102659.53;5074574;28;22013;-91
2022/12/18 03:58:03;;;;;;;23.17;12.32;;;;;;;-6.77;76.68;102647.91;5079508;28;20028;-92
2022/12/18 04:00:30;;;;;;;29.85;13.85;;;;;;;-6.88;76.50;102647.28;5079826;28;20040;-92
2022/12/18 04:02:56;;;;;;;30.30;12.32;;;;;;;-6.83;76.52;102658.72;5079512;28;20020;-92
2022/12/18 04:05:24;;;;;;;29.55;12.82;;;;;;;-6.94;77.10;102636.63;5084608;28;20031;-91
2022/12/18 04:07:52;;;;;;;28.75;13.68;;;;;;;-6.84;77.79;102633.81;5096639;28;20032;-91
2022/12/18 04:10:18;;;;;;;26.00;12.55;;;;;;;-6.82;77.58;102621.03;5087940;28;20049;-91
2022/12/18 04:12:43;;;;;;;29.40;12.75;;;;;;;-6.74;77.56;102619.81;5076710;28;20047;-91
2022/12/18 04:15:10;;;;;;;30.30;12.35;;;;;;;-6.73;77.85;102613.88;5078150;28;20028;-91
2022/12/18 04:17:36;;;;;;;27.08;12.50;;;;;;;-6.75;77.68;102626.63;5079218;28;20031;-91
2022/12/18 04:20:02;;;;;;;26.17;11.65;;;;;;;-6.69;77.94;102636.41;5099573;28;20038;-92
2022/12/18 04:22:28;;;;;;;25.15;12.10;;;;;;;-6.73;77.72;102627.59;5102395;28;20187;-91
2022/12/18 04:24:53;;;;;;;24.70;12.50;;;;;;;-6.73;77.59;102619.88;5074784;28;20067;-91
2022/12/18 04:27:18;;;;;;;23.85;11.20;;;;;;;-6.69;77.66;102627.00;5076013;28;20052;-91
2022/12/18 04:29:44;;;;;;;30.63;12.57;;;;;;;-6.69;77.97;102619.28;5094451;28;20759;-92
2022/12/18 04:32:09;;;;;;;28.48;12.18;;;;;;;-6.76;78.02;102617.16;5100182;28;20043;-91
2022/12/18 04:34:34;;;;;;;29.63;12.57;;;;;;;-6.85;78.07;102590.91;5081836;28;20032;-92
2022/12/18 04:37:00;;;;;;;26.67;11.25;;;;;;;-6.81;77.94;102605.69;5104134;28;20036;-91
2022/12/18 04:39:25;;;;;;;24.65;11.07;;;;;;;-6.72;77.84;102634.50;5077359;28;20197;-92
2022/12/18 04:41:50;;;;;;;26.15;11.23;;;;;;;-6.75;77.82;102634.34;5081309;28;20019;-92
2022/12/18 04:44:15;;;;;;;23.33;11.90;;;;;;;-6.79;77.03;102632.41;5080055;28;20156;-92
2022/12/18 04:46:41;;;;;;;27.20;12.18;;;;;;;-6.82;77.61;102639.03;5075185;28;20020;-92
2022/12/18 04:49:06;;;;;;;22.67;10.15;;;;;;;-6.99;77.08;102614.91;5079857;28;20442;-92
2022/12/18 04:51:32;;;;;;;24.02;10.90;;;;;;;-7.02;76.36;102635.28;5079415;28;20044;-91
2022/12/18 04:53:57;;;;;;;24.42;10.77;;;;;;;-7.18;76.07;102646.34;5086773;28;20175;-92
2022/12/18 04:56:23;;;;;;;23.17;10.93;;;;;;;-7.23;75.89;102658.91;5073931;28;20102;-92
2022/12/18 04:58:48;;;;;;;23.08;9.85;;;;;;;-7.25;78.13;102650.19;5088916;28;20122;-91
2022/12/18 05:01:16;;;;;;;23.95;11.27;;;;;;;-7.21;77.10;102657.31;5101835;28;20055;-92
2022/12/18 05:03:41;;;;;;;23.50;10.75;;;;;;;-7.24;76.77;102657.09;5098548;28;20027;-92
2022/12/18 05:06:07;;;;;;;26.45;11.23;;;;;;;-7.27;76.66;102667.22;5092431;28;21254;-92
2022/12/18 05:08:33;;;;;;;23.92;10.77;;;;;;;-7.31;76.42;102664.34;5082604;28;20028;-92
2022/12/18 05:11:00;;;;;;;22.80;10.88;;;;;;;-7.37;76.42;102669.09;5077090;28;20482;-92
2022/12/18 05:13:26;;;;;;;27.20;11.90;;;;;;;-7.40;76.67;102674.94;5080122;28;20479;-92
2022/12/18 05:15:52;;;;;;;25.23;10.57;;;;;;;-7.28;77.46;102673.13;5073090;28;20034;-92
2022/12/18 05:18:18;;;;;;;22.35;10.77;;;;;;;-7.32;77.66;102658.34;5087511;28;20064;-92
2022/12/18 05:20:43;;;;;;;20.60;10.77;;;;;;;-7.33;76.90;102659.09;5088158;28;20031;-92
2022/12/18 05:23:08;;;;;;;23.70;10.85;;;;;;;-7.36;77.35;102655.47;5082867;28;20028;-92
2022/12/18 05:25:33;;;;;;;21.10;11.13;;;;;;;-7.39;77.53;102663.88;5088095;28;20027;-92
2022/12/18 05:27:59;;;;;;;28.48;11.18;;;;;;;-7.38;77.89;102659.63;5075824;28;20476;-92
2022/12/18 05:30:24;;;;;;;24.63;11.23;;;;;;;-7.24;78.07;102645.94;5081265;28;20278;-93
2022/12/18 05:32:49;;;;;;;24.35;11.38;;;;;;;-7.15;79.10;102630.19;5106326;28;20028;-92
2022/12/18 05:35:15;;;;;;;23.20;10.40;;;;;;;-6.91;78.17;102644.50;5088102;28;20127;-91
2022/12/18 05:37:40;;;;;;;21.88;9.45;;;;;;;-6.89;77.17;102652.34;5080704;28;20047;-92
2022/12/18 05:40:06;;;;;;;21.95;10.13;;;;;;;-6.98;76.77;102652.66;5072875;28;20019;-93
2022/12/18 05:42:31;;;;;;;26.88;11.13;;;;;;;-6.98;77.93;102652.66;5076274;28;20034;-92
2022/12/18 05:44:57;;;;;;;25.35;11.18;;;;;;;-6.89;78.67;102655.78;5081583;28;20394;-92
2022/12/18 05:47:23;;;;;;;22.52;10.65;;;;;;;-6.82;77.66;102657.91;5082964;28;20902;-91
2022/12/18 05:49:48;;;;;;;26.05;11.85;;;;;;;-6.93;78.33;102630.69;5098120;28;20040;-92
2022/12/18 05:52:13;;;;;;;22.35;10.63;;;;;;;-6.78;78.55;102638.41;5078234;28;20032;-92
2022/12/18 05:54:39;;;;;;;20.73;10.20;;;;;;;-6.76;78.50;102636.81;5082200;28;20445;-92
2022/12/18 05:57:04;;;;;;;22.45;11.02;;;;;;;-6.80;78.54;102624.59;5103274;28;20024;-93
2022/12/18 05:59:30;;;;;;;26.88;11.48;;;;;;;-6.73;78.39;102632.75;5086775;28;20054;-92
2022/12/18 06:01:55;;;;;;;24.13;11.05;;;;;;;-6.77;77.58;102627.34;5095638;28;20459;-92
2022/12/18 06:04:20;;;;;;;20.83;10.65;;;;;;;-6.84;77.21;102622.66;5086589;28;20026;-91
2022/12/18 06:06:45;;;;;;;20.27;10.93;;;;;;;-6.84;77.44;102638.06;5084254;28;20040;-92
2022/12/18 06:09:11;;;;;;;22.67;11.48;;;;;;;-6.93;78.18;102613.59;5079374;28;20030;-92
2022/12/18 06:11:40;;;;;;;24.20;10.23;;;;;;;-6.95;78.11;102607.47;5086291;28;20015;-92
2022/12/18 06:14:06;;;;;;;24.85;10.73;;;;;;;-6.72;78.12;102634.50;5087108;28;20504;-92
2022/12/18 06:16:32;;;;;;;22.00;10.52;;;;;;;-6.72;77.36;102633.63;5077931;28;20024;-91
2022/12/18 06:19:02;;;;;;;25.35;11.20;;;;;;;-6.87;78.12;102619.88;5084191;28;20034;-92
2022/12/18 06:21:28;;;;;;;26.42;11.88;;;;;;;-6.77;78.49;102638.50;5103965;28;20402;-92
2022/12/18 06:23:54;;;;;;;20.50;10.18;;;;;;;-6.82;78.58;102628.75;5085463;28;20570;-93
2022/12/18 06:26:19;;;;;;;26.45;11.85;;;;;;;-6.83;78.78;102632.13;5085356;28;20114;-92
2022/12/18 06:28:45;;;;;;;19.55;9.40;;;;;;;-6.93;77.52;102622.97;5084838;28;20479;-92
2022/12/18 06:31:10;;;;;;;21.02;10.43;;;;;;;-6.86;77.87;102653.38;5087965;28;20114;-92
2022/12/18 06:33:36;;;;;;;23.80;11.45;;;;;;;-6.84;77.45;102656.94;5082805;28;20057;-92
2022/12/18 06:36:08;;;;;;;23.35;10.45;;;;;;;-6.90;78.49;102640.25;5110211;28;20031;-93
2022/12/18 06:38:36;;;;;;;22.40;10.55;;;;;;;-7.00;78.21;102623.41;5079014;28;20028;-92
2022/12/18 06:41:07;;;;;;;20.35;9.90;;;;;;;-7.03;78.24;102621.56;5086799;28;20020;-92
2022/12/18 06:43:32;;;;;;;25.13;11.15;;;;;;;-7.01;78.47;102619.94;5106335;28;20034;-93
2022/12/18 06:45:59;;;;;;;19.40;10.48;;;;;;;-7.00;79.10;102605.41;5085804;28;20024;-92
2022/12/18 06:48:25;;;;;;;23.98;10.93;;;;;;;-6.86;78.80;102617.38;5078471;28;20032;-91
2022/12/18 06:50:50;;;;;;;23.45;11.10;;;;;;;-6.90;78.73;102612.88;5107503;28;20051;-92
2022/12/18 06:53:16;;;;;;;23.05;10.55;;;;;;;-6.84;78.87;102625.22;5103242;28;20054;-93
2022/12/18 06:55:41;;;;;;;23.27;11.25;;;;;;;-6.95;79.31;102589.47;5093908;28;20122;-93
2022/12/18 06:58:07;;;;;;;24.95;12.50;;;;;;;-6.84;79.39;102609.78;5085414;28;20016;-93
2022/12/18 07:00:32;;;;;;;24.77;10.65;;;;;;;-6.80;79.46;102615.19;5087830;28;20035;-92
2022/12/18 07:02:57;;;;;;;22.42;11.18;;;;;;;-6.78;79.05;102621.31;5089665;28;20505;-91
2022/12/18 07:05:23;;;;;;;25.17;11.95;;;;;;;-6.84;78.78;102614.94;5087699;28;20027;-93
2022/12/18 07:07:48;;;;;;;23.02;10.77;;;;;;;-6.84;79.37;102608.09;5088496;28;20023;-93
2022/12/18 07:10:13;;;;;;;30.05;13.55;;;;;;;-6.74;80.08;102607.84;5085123;28;20060;-94
2022/12/18 07:12:39;;;;;;;23.75;11.15;;;;;;;-6.75;79.64;102595.78;5097893;28;20043;-92
2022/12/18 07:15:05;;;;;;;24.08;11.88;;;;;;;-6.63;79.55;102592.13;5084995;28;20027;-92
2022/12/18 07:17:30;;;;;;;28.13;11.68;;;;;;;-6.62;79.96;102587.09;5083001;28;20031;-92
2022/12/18 07:19:55;;;;;;;21.83;9.02;;;;;;;-6.57;79.36;102589.94;5081276;28;20028;-93
2022/12/18 07:22:21;;;;;;;25.13;12.43;;;;;;;-6.52;80.10;102596.22;5106297;28;20103;-92
2022/12/18 07:24:46;;;;;;;28.08;12.18;;;;;;;-6.55;79.48;102583.19;5090280;28;20034;-92
2022/12/18 07:27:11;;;;;;;24.40;11.45;;;;;;;-6.55;79.71;102568.63;5087313;28;20590;-92
2022/12/18 07:29:36;;;;;;;28.60;13.15;;;;;;;-6.57;79.71;102559.06;5080814;28;20023;-93
2022/12/18 07:32:02;;;;;;;24.10;11.38;;;;;;;-6.66;79.86;102535.41;5091824;28;20024;-92
2022/12/18 07:34:27;;;;;;;25.35;11.90;;;;;;;-6.61;79.49;102541.69;5097214;28;20028;-92
2022/12/18 07:36:52;;;;;;;24.90;11.70;;;;;;;-6.51;79.02;102560.28;5084942;28;20030;-92
2022/12/18 07:39:18;;;;;;;24.13;11.88;;;;;;;-6.52;79.84;102553.38;5085132;28;20038;-93
2022/12/18 07:41:45;;;;;;;26.05;10.35;;;;;;;-6.55;80.04;102547.16;5093422;28;20514;-91
2022/12/18 07:44:12;;;;;;;24.77;12.25;;;;;;;-6.55;79.84;102532.63;5097483;28;20027;-93
2022/12/18 07:46:37;;;;;;;28.17;12.02;;;;;;;-6.40;79.88;102544.56;5105635;28;20020;-93
2022/12/18 07:49:02;;;;;;;24.77;11.73;;;;;;;-6.41;79.80;102528.25;5078406;28;20031;-91
2022/12/18 07:51:28;;;;;;;26.80;12.27;;;;;;;-6.37;79.89;102529.31;5096779;28;20110;-93
2022/12/18 07:53:53;;;;;;;24.05;11.13;;;;;;;-6.30;80.04;102526.25;5091876;28;20499;-91
2022/12/18 07:56:19;;;;;;;27.17;11.70;;;;;;;-6.18;80.60;102526.94;5074472;28;20028;-92
2022/12/18 07:58:47;;;;;;;30.23;16.02;;;;;;;-6.09;80.96;102524.00;5094421;28;20020;-93
2022/12/18 08:01:12;;;;;;;21.35;11.95;;;;;;;-6.02;80.73;102508.94;5077627;28;20081;-92
2022/12/18 08:03:39;;;;;;;26.85;13.00;;;;;;;-5.86;80.35;102522.63;5075546;28;20561;-91
2022/12/18 08:06:07;;;;;;;26.02;11.45;;;;;;;-5.84;80.15;102515.84;5075149;28;20458;-92
2022/12/18 08:08:33;;;;;;;27.98;14.18;;;;;;;-5.85;80.61;102501.22;5077481;28;20031;-92
2022/12/18 08:10:59;;;;;;;29.73;14.13;;;;;;;-5.75;80.25;102498.31;5095515;28;20084;-92
2022/12/18 08:13:25;;;;;;;28.23;12.93;;;;;;;-5.46;80.13;102534.22;5080249;28;20475;-92
2022/12/18 08:16:07;;;;;;;31.75;14.20;;;;;;;-5.38;80.38;102527.78;5074714;28;20533;-92
2022/12/18 08:18:34;;;;;;;26.35;11.07;;;;;;;-5.36;79.36;102509.84;5078437;28;20534;-93
2022/12/18 08:21:28;;;;;;;26.52;12.77;;;;;;;-5.22;79.51;102531.16;5098182;28;20058;-92
2022/12/18 08:23:56;;;;;;;16.67;9.07;;;;;;;-4.91;78.31;102523.25;5093180;28;20421;-93
2022/12/18 08:26:22;;;;;;;23.23;11.77;;;;;;;-5.07;79.20;102529.34;5077314;28;20027;-91
2022/12/18 08:28:48;;;;;;;27.40;12.50;;;;;;;-4.91;79.40;102544.78;5077035;28;20031;-91
2022/12/18 08:31:14;;;;;;;25.80;11.80;;;;;;;-4.79;78.97;102535.91;5094303;28;20475;-93
2022/12/18 08:33:40;;;;;;;21.17;11.05;;;;;;;-4.62;79.21;102524.69;5083347;28;20076;-91
2022/12/18 08:36:07;;;;;;;29.02;13.27;;;;;;;-4.58;79.08;102516.28;5085358;28;20037;-93
2022/12/18 08:38:33;;;;;;;28.25;13.88;;;;;;;-4.43;79.23;102510.97;5078709;28;20099;-94
2022/12/18 08:41:03;;;;;;;25.80;12.07;;;;;;;-4.21;78.33;102530.97;5072595;28;20055;-93
2022/12/18 08:46:16;;;;;;;27.00;13.73;;;;;;;-4.15;78.45;102519.25;5095326;28;20455;-93
2022/12/18 08:48:41;;;;;;;28.05;14.30;;;;;;;-4.13;78.27;102519.31;5081234;28;20028;-92
2022/12/18 08:51:06;;;;;;;27.65;13.00;;;;;;;-4.05;78.57;102504.16;5075101;28;20101;-93
2022/12/18 08:53:32;;;;;;;32.00;15.27;;;;;;;-3.97;78.33;102503.69;5075157;28;20035;-91
2022/12/18 08:55:57;;;;;;;28.60;13.77;;;;;;;-3.81;78.01;102494.94;5073246;28;20063;-93
2022/12/18 08:58:23;;;;;;;24.38;10.48;;;;;;;-3.63;78.18;102498.34;5086065;28;20424;-93
2022/12/18 09:00:48;;;;;;;25.38;13.50;;;;;;;-3.52;77.07;102482.44;5071690;28;21458;-91
2022/12/18 09:03:15;;;;;;;19.50;10.25;;;;;;;-3.45;77.48;102485.34;5074610;28;20483;-93
2022/12/18 09:05:41;;;;;;;25.90;13.52;;;;;;;-3.40;77.20;102483.84;5076058;28;20028;-92
2022/12/18 09:08:07;;;;;;;26.20;12.45;;;;;;;-3.28;76.65;102503.28;5079826;28;20039;-92
2022/12/18 09:10:32;;;;;;;28.67;13.20;;;;;;;-3.34;76.64;102488.41;5091711;28;20054;-93
2022/12/18 09:12:58;;;;;;;31.10;14.45;;;;;;;-3.21;76.47;102508.78;5095688;28;20640;-92
2022/12/18 09:15:23;;;;;;;22.20;11.35;;;;;;;-3.12;76.39;102509.19;5079989;28;20096;-91
2022/12/18 09:17:49;;;;;;;24.75;10.93;;;;;;;-3.06;76.70;102510.25;5098123;28;20032;-92
2022/12/18 09:20:15;;;;;;;23.40;12.32;;;;;;;-3.06;76.16;102521.50;5078080;28;20466;-91
2022/12/18 09:22:41;;;;;;;19.20;10.98;;;;;;;-3.11;75.95;102513.53;5093924;28;20027;-91
2022/12/18 09:25:07;;;;;;;25.73;11.63;;;;;;;-2.95;76.51;102522.81;5080424;28;20039;-92
2022/12/18 09:27:33;;;;;;;29.27;13.65;;;;;;;-2.85;76.30;102532.72;5090043;28;20490;-92
2022/12/18 09:29:58;;;;;;;27.40;13.80;;;;;;;-2.83;76.21;102509.53;5082576;28;20058;-92
2022/12/18 09:32:24;;;;;;;25.23;13.23;;;;;;;-2.62;76.30;102512.09;5083808;28;20445;-91
2022/12/18 09:34:49;;;;;;;26.08;14.65;;;;;;;-2.65;76.18;102506.81;5077157;28;20070;-92
2022/12/18 09:37:14;;;;;;;27.98;11.93;;;;;;;-2.54;76.13;102515.00;5092055;28;20623;-91
2022/12/18 09:39:39;;;;;;;26.83;13.52;;;;;;;-2.43;76.15;102524.06;5078169;28;20024;-92
2022/12/18 09:42:06;;;;;;;28.80;13.88;;;;;;;-2.47;75.33;102507.53;5077748;28;20020;-92
2022/12/18 09:44:41;;;;;;;29.15;13.75;;;;;;;-2.36;75.77;102502.78;5080364;28;20118;-91
2022/12/18 09:47:16;;;;;;;25.15;13.10;;;;;;;-2.29;77.04;102503.91;5082058;28;20114;-91
2022/12/18 09:49:46;;;;;;;27.15;12.95;;;;;;;-2.22;76.07;102495.56;5092610;28;20051;-93
2022/12/18 09:52:23;;;;;;;24.92;13.02;;;;;;;-2.16;75.91;102494.06;5055290;28;20489;-94
2022/12/18 09:54:55;;;;;;;27.63;13.43;;;;;;;-2.10;75.07;102491.72;5057659;28;20071;-94
2022/12/18 09:57:23;;;;;;;23.40;10.70;;;;;;;-1.88;74.84;102466.59;5062657;28;20035;-93
2022/12/18 09:59:56;;;;;;;32.38;15.50;;;;;;;-1.77;74.52;102457.53;5068530;28;20064;-93
2022/12/18 10:02:26;;;;;;;25.33;12.23;;;;;;;-1.73;74.02;102456.78;5075626;28;20037;-94
2022/12/18 10:05:06;;;;;;;29.23;13.45;;;;;;;-1.54;74.81;102471.28;5056681;28;20032;-93
2022/12/18 10:07:41;;;;;;;29.92;13.73;;;;;;;-1.27;74.82;102492.13;5055496;28;20094;-92
2022/12/18 10:10:22;;;;;;;28.98;14.15;;;;;;;-1.26;73.90;102473.13;5055929;28;20491;-92
2022/12/18 10:13:00;;;;;;;28.13;13.88;;;;;;;-1.14;74.17;102475.28;5051486;28;20058;-94
2022/12/18 10:15:46;;;;;;;25.80;13.52;;;;;;;-1.09;72.42;102465.94;5055340;28;20158;-93
2022/12/18 10:18:27;;;;;;;27.95;13.20;;;;;;;-1.12;72.50;102471.94;5058610;28;20521;-93
2022/12/18 10:21:03;;;;;;;26.08;14.30;;;;;;;-1.24;72.93;102468.91;5057001;28;20032;-93
2022/12/18 10:23:50;;;;;;;18.80;9.02;;;;;;;-1.29;73.83;102480.84;5067038;28;20498;-93
2022/12/18 10:26:16;;;;;;;20.35;12.35;;;;;;;-1.41;73.44;102480.38;5061892;28;20062;-93
2022/12/18 10:28:43;;;;;;;25.40;12.65;;;;;;;-1.49;74.30;102474.97;5066156;28;20047;-94
2022/12/18 10:31:20;;;;;;;24.50;11.93;;;;;;;-1.53;74.21;102467.00;5060807;28;20020;-93
2022/12/18 10:33:46;;;;;;;34.05;13.40;;;;;;;-1.42;74.33;102463.06;5075329;28;20052;-91
2022/12/18 10:36:12;;;;;;;27.27;14.10;;;;;;;-1.33;73.91;102460.81;5062215;28;20063;-93
2022/12/18 10:38:38;;;;;;;25.75;13.10;;;;;;;-1.28;73.19;102438.47;5062497;28;20028;-94
2022/12/18 10:41:26;;;;;;;25.50;13.68;;;;;;;-1.07;73.31;102451.31;5057736;28;20029;-93
2022/12/18 10:44:11;;;;;;;24.55;13.10;;;;;;;-1.04;73.03;102428.03;5079383;28;20037;-93
2022/12/18 10:46:37;;;;;;;31.75;13.75;;;;;;;-0.94;73.16;102411.03;5067659;28;20028;-93
2022/12/18 10:49:02;;;;;;;27.23;14.82;;;;;;;-0.97;72.32;102400.59;5064696;28;20103;-94
2022/12/18 10:51:33;;;;;;;24.42;12.75;;;;;;;-0.83;73.25;102420.09;5059962;28;20040;-93
2022/12/18 10:54:19;;;;;;;26.77;13.52;;;;;;;-0.76;72.51;102422.03;5063001;28;20490;-93
2022/12/18 10:56:45;;;;;;;31.40;13.20;;;;;;;-0.82;72.27;102407.13;5055196;28;20028;-93
2022/12/18 10:59:13;;;;;;;21.40;11.50;;;;;;;-0.77;72.82;102415.06;5057194;28;20127;-92
2022/12/18 11:01:50;;;;;;;24.20;12.50;;;;;;;-0.88;72.56;102403.47;5058279;28;20090;-93
2022/12/18 11:04:19;;;;;;;25.20;12.43;;;;;;;-0.91;73.05;102401.66;5059823;28;20383;-92
2022/12/18 11:07:08;;;;;;;25.13;12.32;;;;;;;-0.93;72.93;102395.53;5077323;28;20024;-92
2022/12/18 11:09:39;;;;;;;26.00;12.70;;;;;;;-0.95;72.27;102404.09;5076624;28;20231;-93
2022/12/18 11:12:16;;;;;;;30.00;14.55;;;;;;;-0.95;72.97;102409.28;5062593;28;20110;-92
2022/12/18 11:14:46;;;;;;;25.50;13.48;;;;;;;-0.97;72.74;102411.84;5063165;28;20032;-92
2022/12/18 11:17:27;;;;;;;19.52;10.82;;;;;;;-0.99;72.20;102405.72;5056916;28;20120;-92
2022/12/18 11:19:55;;;;;;;24.08;12.23;;;;;;;-1.08;72.97;102403.69;5088388;28;20057;-92
2022/12/18 11:22:30;;;;;;;29.50;10.48;;;;;;;-1.05;72.62;102398.59;5058782;28;20572;-92